Flight Track Log - Related Links

Times and Time Zones

All times are in EDT time to prevent confusion due to time zone crossing. See the KAP46 flight status page for this flight to view local times or setup timezone preferences in your user account.

Time Position Orientation Groundspeed Altitude Reporting Facility
EDT Latitude Longitude Course Direction KTS MPH feet Rate Location/Type
Sat 06:26:00 PM 42.8952 -73.8692 341° North  Level Estimated
Sat 06:27:00 PM 42.9196 -73.8804 341° North  Level Estimated
Sat 06:28:00 PM 42.9439 -73.8917 341° North  Level Estimated
Sat 06:29:00 PM 42.9683 -73.9029 341° North  Level Estimated
Sat 06:30:00 PM 42.9926 -73.9142 341° North  Level Estimated
Sat 06:31:00 PM 43.0170 -73.9255 341° North  Level Estimated
Sat 06:31:11 PM 43.0931 -73.9328 341° North 184 212 7,000  Level Boston Center
Sat 06:32:00 PM 43.0413 -73.9367 341° North  Level Estimated
Sat 06:32:25 PM 43.1511 -73.9483 349° North 195 224 7,000  Level Boston Center
Sat 06:33:00 PM 43.0657 -73.9480 341° North  Level Estimated
Sat 06:33:25 PM 43.2008 -73.9639 347° North 180 207 6,900  Level Boston Center
Sat 06:34:00 PM 43.0900 -73.9593 341° North  Level Estimated
Sat 06:34:25 PM 43.2486 -73.9736 352° North 180 207 6,900  Level Boston Center
Sat 06:35:00 PM 43.1143 -73.9706 341° North  Level Estimated
Sat 06:35:37 PM 43.2986 -73.9778 357° North 180 207 6,900  Level Boston Center
Sat 06:36:00 PM 43.1387 -73.9819 341° North  Level Estimated
Sat 06:36:37 PM 43.3528 -73.9878 352° North 180 207 6,900  Level Boston Center
Sat 06:37:37 PM 43.3983 -74.0031 346° North 180 207 6,900  Level Boston Center
Sat 06:38:37 PM 43.4397 -74.0300 335° Northwest 175 201 6,900  Level Boston Center
Sat 06:39:37 PM 43.4811 -74.0539 337° Northwest 164 189 6,900  Level Boston Center
Sat 06:40:37 PM 43.5225 -74.0722 342° North 159 183 6,900  Level Boston Center
Sat 06:41:37 PM 43.5661 -74.0906 343° North 159 183 6,900  Level Boston Center
Sat 06:42:37 PM 43.6133 -74.1233 333° Northwest 159 183 6,900  Level Boston Center
Sat 06:43:37 PM 43.6569 -74.1475 338° Northwest 159 183 6,900  Level Boston Center
Sat 06:44:37 PM 43.7025 -74.1547 353° North 164 189 6,900  Level Boston Center
Sat 06:45:49 PM 43.7483 -74.1644 351° North 164 189 6,900  Level Boston Center
Sat 06:46:49 PM 43.8022 -74.1892 342° North 164 189 6,900  Level Boston Center
Sat 06:47:49 PM 43.8414 -74.2161 334° Northwest 164 189 6,900  Level Boston Center
Sat 06:48:49 PM 43.8803 -74.2489 329° Northwest 164 189 6,900  Level Boston Center
Sat 06:49:49 PM 43.9236 -74.2819 331° Northwest 164 189 6,900 50 Level Boston Center
Sat 06:50:49 PM 43.9647 -74.3119 332° Northwest 164 189 7,000 50 Climbing Boston Center
Sat 06:51:49 PM 44.0081 -74.3336 340° North 164 189 7,000  Level Boston Center
Sat 06:52:49 PM 44.0558 -74.3583 340° North 169 194 7,000  Level Boston Center
Sat 06:53:49 PM 44.0992 -74.3828 338° Northwest 169 194 7,000  Level Boston Center
Sat 06:54:49 PM 44.1425 -74.4075 338° Northwest 169 194 7,000  Level Boston Center
Sat 06:55:49 PM 44.1900 -74.4319 340° North 169 194 7,000  Level Boston Center
Sat 06:56:49 PM 44.2314 -74.4508 342° North 169 194 7,000  Level Boston Center
Sat 06:57:49 PM 44.2744 -74.4756 338° Northwest 169 194 7,000 -50 Level Boston Center
Sat 06:58:49 PM 44.3200 -74.5003 339° North 169 194 6,900 -50 Descending Boston Center
Sat 06:59:49 PM 44.3633 -74.5250 338° Northwest 169 194 6,900  Level Boston Center
Sat 07:00:49 PM 44.4044 -74.5497 337° Northwest 169 194 6,900 -350 Level Boston Center
Sat 07:01:49 PM 44.4433 -74.5861 326° Northwest 169 194 6,200 -650 Descending Boston Center
Sat 07:02:49 PM 44.4864 -74.6311 323° Northwest 179 206 5,600 -600 Descending Boston Center
Sat 07:03:49 PM 44.5272 -74.6736 323° Northwest 179 206 5,000 -350 Descending Boston Center
Sat 07:04:49 PM 44.5681 -74.7158 324° Northwest 179 206 4,900 -50 Descending Boston Center
Sat 07:05:49 PM 44.6028 -74.7522 323° Northwest 174 200 4,900  Level Boston Center

Login

Don't have an account? Register now (free) for customized features, flight alerts, and more!